Airfield :
LOGIN :

Register | Disclaimer

   EN    FR    IT 

 










Legend :    VFR   Marginal VFR   IFR   Intensive IFR   Very Intensive IFR
Visi :
Ceiling :
>= 8 km
>= 3000ft
5 to 8 km
1000 to 3000 ft
1500m to 5 km
500 to 1000 ft
800 to 1500m
200 to 500 ft
< 800m
< 200 ft
Symbols :   Thunderstorms  Fog  Heavy snow  Heavy precipitations  Wind > 20 kt
SIGMETs :     Misc.  Thunderstorms  Icing  Turbulence  Mountain Waves  Volcanic Ashes






- Airport Elevation : 458 ft


LFSI - St-Dizier

CURRENT METAR :
  • 010230Z AUTO 08005KT CAVOK 01/M06 Q1022

EXPIRED METARs :
  • 010200Z AUTO 07005KT CAVOK 02/M06 Q1022
  • 010130Z AUTO 08003KT CAVOK 01/M06 Q1022
  • 010100Z AUTO 05002KT CAVOK 02/M07 Q1023
  • 010030Z AUTO 07003KT CAVOK 01/M06 Q1023
  • 010000Z AUTO 05002KT CAVOK 02/M06 Q1023
  • 312330Z AUTO VRB03KT CAVOK 02/M06 Q1023

TAF TAF LFSI
Valid from the 01 at 03:00 until the 02 at 03:00 UTC


010200Z 0103/0203 06005KT CAVOK



MET'MAP, your aeronautical weather chart ! - Copyright ORBIFLY December 2007 - Disclaimer

ORBIFLY MET'MAP TEAM :

Programming & Development : Alexandra Zaïnal
Concept & original design : Baudouin d'Aumeries
Assistance for programming : Marc-Olivier Méhu
Technical & hardware support : Manuel Goepfert

Contact : metmap@orbifly.com




SOURCES & CREDITS :

   NOAA